Main page
METAR-TAF:

METAR-TAF

Airports :

Lubango Airport

Lubango, Angola

latitude: 14-55-30S, longitude: 13-34-30E, elevation: 1761 m

Current weather observation

The report was made 3 hours and 47 minutes ago, at 13:00 UTC
Wind 4 kt from the Northeast
Temperature 29°C
Humidity 33%
Pressure 1022 hPa
Visibility 10 km or more
Broken clouds at a height of 3000 ft

METAR: FNUB 201300Z 04004KT 9999 BKN030 29/11 Q1022

Time: 17:47 (16:47 UTC)

Forecast

The report was made 5 hours and 47 minutes ago, at 11:00 UTC
Forecast valid from 20 at 12 UTC to 20 at 24 UTC
Wind 3 kt from variable directions
Visibility: 7000 m
Broken clouds at a height of 1500 ft
light rain
Becoming
from 20 at 18 UTC to 20 at 21 UTC
Visibility 10 km or more
Broken clouds at a height of 2500 ft

TAF: FNUB 201100Z 2012/2024 VRB03KT 7000 -RA BKN015 BECMG 2018/2021 9999 BKN025

Weather observations and forecasts of more than 4000 airports (METAR and TAF reports).

The available stations are represented by yellow and red dots on the map.

Hover mouse over dot to see the name of the station.

Then click to see weather observations and forecasts.

To change the map : click on the green buttons with a black cross to zoom in, on the green button with a dash to zoom out, or on the green arrows for adjacent maps.


METAR-TAF: